Terminal Aerodrome Forecast
Issued by NWS

Home | Current Version | Previous Version | Text Only | Print | Product List | Glossary On
Versions: 1 2 3 4 5 6 7 8 9 10 11 12 13 14 15 16 17 18 19 20 21 22 23 24 25 26 27 28
000
FTUS43 KGRB 221400 AAA
TAFAUW
TAF AMD
KAUW 221402Z 2214/2312 06005KT 5SM HZ SCT005 OVC012
      TEMPO 2214/2216 1SM BR BKN004
     FM221600 12005KT 6SM HZ OVC012
     FM221800 13005KT 6SM HZ OVC020
     FM222200 11004KT 6SM HZ BKN015 BKN030
     FM230200 VRB03KT 4SM BR BKN015
     FM230400 VRB03KT 1SM BR OVC007
     FM230700 VRB03KT 3/4SM BR OVC005=

USA.gov is the U.S. government's official web portal to all federal, state and local government web resources and services.